sensor_id;sensor_type;location;lat;lon;timestamp;pressure;altitude;pressure_sealevel;temperature;humidity
78206;BME280;67480;48.920;12.880;2024-02-16T00:00:58;97017.81;;;8.55;72.72
78206;BME280;67480;48.920;12.880;2024-02-16T00:03:23;97021.03;;;8.57;72.75
78206;BME280;67480;48.920;12.880;2024-02-16T00:05:49;97021.81;;;8.57;72.66
78206;BME280;67480;48.920;12.880;2024-02-16T00:08:17;97015.00;;;8.56;72.54
78206;BME280;67480;48.920;12.880;2024-02-16T00:10:43;97012.56;;;8.55;72.81
78206;BME280;67480;48.920;12.880;2024-02-16T00:13:08;97008.38;;;8.54;72.57
78206;BME280;67480;48.920;12.880;2024-02-16T00:15:33;97014.19;;;8.56;72.29
78206;BME280;67480;48.920;12.880;2024-02-16T00:17:59;97010.19;;;8.53;72.67
78206;BME280;67480;48.920;12.880;2024-02-16T00:20:25;97009.38;;;8.53;72.33
78206;BME280;67480;48.920;12.880;2024-02-16T00:22:50;97009.38;;;8.53;72.48
78206;BME280;67480;48.920;12.880;2024-02-16T00:25:16;97011.16;;;8.52;72.33
78206;BME280;67480;48.920;12.880;2024-02-16T00:27:43;97008.78;;;8.51;72.16
78206;BME280;67480;48.920;12.880;2024-02-16T00:30:09;97008.16;;;8.49;72.41
78206;BME280;67480;48.920;12.880;2024-02-16T00:32:35;97004.94;;;8.47;72.48
78206;BME280;67480;48.920;12.880;2024-02-16T00:35:02;97012.78;;;8.47;72.27
78206;BME280;67480;48.920;12.880;2024-02-16T00:37:28;97011.19;;;8.46;72.14
78206;BME280;67480;48.920;12.880;2024-02-16T00:39:53;97006.56;;;8.41;72.26
78206;BME280;67480;48.920;12.880;2024-02-16T00:42:20;97010.00;;;8.42;72.17
78206;BME280;67480;48.920;12.880;2024-02-16T00:44:48;97003.16;;;8.41;72.23
78206;BME280;67480;48.920;12.880;2024-02-16T00:47:13;96989.72;;;8.37;72.26
78206;BME280;67480;48.920;12.880;2024-02-16T00:49:41;97000.56;;;8.41;72.31
78206;BME280;67480;48.920;12.880;2024-02-16T00:52:07;97004.19;;;8.40;72.55
78206;BME280;67480;48.920;12.880;2024-02-16T00:54:32;96995.31;;;8.41;72.10
78206;BME280;67480;48.920;12.880;2024-02-16T00:56:58;97005.19;;;8.39;72.28
78206;BME280;67480;48.920;12.880;2024-02-16T00:59:27;97003.16;;;8.41;71.92
78206;BME280;67480;48.920;12.880;2024-02-16T01:01:53;97003.00;;;8.35;71.97
78206;BME280;67480;48.920;12.880;2024-02-16T01:04:18;96988.13;;;8.36;72.15
78206;BME280;67480;48.920;12.880;2024-02-16T01:06:44;96980.88;;;8.31;72.15
78206;BME280;67480;48.920;12.880;2024-02-16T01:09:09;96985.31;;;8.31;72.20
78206;BME280;67480;48.920;12.880;2024-02-16T01:11:34;96987.13;;;8.30;72.45
78206;BME280;67480;48.920;12.880;2024-02-16T01:14:00;96983.50;;;8.31;72.31
78206;BME280;67480;48.920;12.880;2024-02-16T01:16:25;96985.31;;;8.31;72.30
78206;BME280;67480;48.920;12.880;2024-02-16T01:18:50;96983.31;;;8.33;72.15
78206;BME280;67480;48.920;12.880;2024-02-16T01:21:16;96984.28;;;8.32;72.11
78206;BME280;67480;48.920;12.880;2024-02-16T01:23:41;96980.09;;;8.31;72.40
78206;BME280;67480;48.920;12.880;2024-02-16T01:26:07;96980.88;;;8.31;72.28
78206;BME280;67480;48.920;12.880;2024-02-16T01:28:32;96974.47;;;8.27;72.46
78206;BME280;67480;48.920;12.880;2024-02-16T01:31:00;96969.84;;;8.29;72.32
78206;BME280;67480;48.920;12.880;2024-02-16T01:33:26;96977.66;;;8.29;72.18
78206;BME280;67480;48.920;12.880;2024-02-16T01:35:51;96973.06;;;8.25;72.44
78206;BME280;67480;48.920;12.880;2024-02-16T01:38:17;96973.06;;;8.25;72.26
78206;BME280;67480;48.920;12.880;2024-02-16T01:40:42;96973.25;;;8.23;71.98
78206;BME280;67480;48.920;12.880;2024-02-16T01:43:07;96971.25;;;8.25;71.99
78206;BME280;67480;48.920;12.880;2024-02-16T01:45:33;96966.22;;;8.24;72.27
78206;BME280;67480;48.920;12.880;2024-02-16T01:47:58;96962.81;;;8.23;71.85
78206;BME280;67480;48.920;12.880;2024-02-16T01:50:24;96964.63;;;8.23;71.79
78206;BME280;67480;48.920;12.880;2024-02-16T01:52:50;96965.25;;;8.25;71.96
78206;BME280;67480;48.920;12.880;2024-02-16T01:55:16;96966.03;;;8.25;71.97
78206;BME280;67480;48.920;12.880;2024-02-16T01:57:44;96962.81;;;8.23;71.87
78206;BME280;67480;48.920;12.880;2024-02-16T02:00:10;96967.44;;;8.21;71.86
78206;BME280;67480;48.920;12.880;2024-02-16T02:02:36;96965.22;;;8.18;71.62
78206;BME280;67480;48.920;12.880;2024-02-16T02:05:02;96968.44;;;8.20;71.64
78206;BME280;67480;48.920;12.880;2024-02-16T02:07:28;96967.25;;;8.16;72.02
78206;BME280;67480;48.920;12.880;2024-02-16T02:09:54;96973.06;;;8.18;72.28
78206;BME280;67480;48.920;12.880;2024-02-16T02:12:20;96963.81;;;8.16;71.48
78206;BME280;67480;48.920;12.880;2024-02-16T02:14:45;96971.47;;;8.10;71.88
78206;BME280;67480;48.920;12.880;2024-02-16T02:17:14;96973.09;;;8.05;71.96
78206;BME280;67480;48.920;12.880;2024-02-16T02:19:40;96971.25;;;7.99;72.12
78206;BME280;67480;48.920;12.880;2024-02-16T02:22:18;96973.28;;;7.90;71.51
78206;BME280;67480;48.920;12.880;2024-02-16T02:24:44;96981.50;;;7.87;71.60
78206;BME280;67480;48.920;12.880;2024-02-16T02:27:11;96969.25;;;7.81;72.06
78206;BME280;67480;48.920;12.880;2024-02-16T02:29:38;96983.91;;;7.75;71.96
78206;BME280;67480;48.920;12.880;2024-02-16T02:32:04;96977.09;;;7.74;72.26
78206;BME280;67480;48.920;12.880;2024-02-16T02:34:29;96973.28;;;7.70;72.10
78206;BME280;67480;48.920;12.880;2024-02-16T02:36:54;96971.47;;;7.71;72.24
78206;BME280;67480;48.920;12.880;2024-02-16T02:39:20;96971.06;;;7.67;72.14
78206;BME280;67480;48.920;12.880;2024-02-16T02:41:45;96969.25;;;7.67;72.02
78206;BME280;67480;48.920;12.880;2024-02-16T02:44:11;96958.03;;;7.67;72.44
78206;BME280;67480;48.920;12.880;2024-02-16T02:46:36;96953.59;;;7.61;71.72
78206;BME280;67480;48.920;12.880;2024-02-16T02:49:02;96948.38;;;7.61;72.37
78206;BME280;67480;48.920;12.880;2024-02-16T02:51:29;96940.38;;;7.62;71.95
78206;BME280;67480;48.920;12.880;2024-02-16T02:53:54;96941.59;;;7.60;72.40
78206;BME280;67480;48.920;12.880;2024-02-16T02:59:41;96933.53;;;7.55;72.28
78206;BME280;67480;48.920;12.880;2024-02-16T03:02:06;96931.53;;;7.50;72.44
78206;BME280;67480;48.920;12.880;2024-02-16T03:04:32;96934.94;;;7.51;71.55
78206;BME280;67480;48.920;12.880;2024-02-16T03:06:58;96927.91;;;7.44;72.33
78206;BME280;67480;48.920;12.880;2024-02-16T03:09:23;96925.31;;;7.44;72.17
78206;BME280;67480;48.920;12.880;2024-02-16T03:11:49;96926.31;;;7.43;72.12
78206;BME280;67480;48.920;12.880;2024-02-16T03:14:16;96910.66;;;7.43;72.37
78206;BME280;67480;48.920;12.880;2024-02-16T03:16:41;96917.69;;;7.43;72.16
78206;BME280;67480;48.920;12.880;2024-02-16T03:19:07;96928.31;;;7.41;72.46
78206;BME280;67480;48.920;12.880;2024-02-16T03:21:35;96930.13;;;7.41;72.29
78206;BME280;67480;48.920;12.880;2024-02-16T03:24:04;96930.31;;;7.39;72.44
78206;BME280;67480;48.920;12.880;2024-02-16T03:26:30;96933.53;;;7.35;72.06
78206;BME280;67480;48.920;12.880;2024-02-16T03:28:55;96938.31;;;7.31;72.12
78206;BME280;67480;48.920;12.880;2024-02-16T03:31:23;96933.50;;;7.28;72.23
78206;BME280;67480;48.920;12.880;2024-02-16T03:33:49;96945.94;;;7.26;72.21
78206;BME280;67480;48.920;12.880;2024-02-16T03:36:16;96942.72;;;7.24;72.00
78206;BME280;67480;48.920;12.880;2024-02-16T03:38:46;96945.94;;;7.26;72.10
78206;BME280;67480;48.920;12.880;2024-02-16T03:41:21;96951.91;;;7.20;72.54
78206;BME280;67480;48.920;12.880;2024-02-16T03:43:47;96939.72;;;7.20;71.97
78206;BME280;67480;48.920;12.880;2024-02-16T03:46:12;96941.09;;;7.16;72.74
78206;BME280;67480;48.920;12.880;2024-02-16T03:48:41;96948.53;;;7.19;72.44
78206;BME280;67480;48.920;12.880;2024-02-16T03:51:07;96949.31;;;7.20;72.28
78206;BME280;67480;48.920;12.880;2024-02-16T03:53:32;96952.31;;;7.17;72.19
78206;BME280;67480;48.920;12.880;2024-02-16T03:55:58;96960.75;;;7.19;71.99
78206;BME280;67480;48.920;12.880;2024-02-16T03:58:24;96951.34;;;7.18;72.25
78206;BME280;67480;48.920;12.880;2024-02-16T04:00:49;96957.94;;;7.14;72.23
78206;BME280;67480;48.920;12.880;2024-02-16T04:03:15;96949.53;;;7.12;72.61
78206;BME280;67480;48.920;12.880;2024-02-16T04:05:41;96955.72;;;7.11;72.24
78206;BME280;67480;48.920;12.880;2024-02-16T04:08:07;96969.13;;;7.08;72.50
78206;BME280;67480;48.920;12.880;2024-02-16T04:10:33;96970.16;;;7.07;72.43
78206;BME280;67480;48.920;12.880;2024-02-16T04:12:59;96963.53;;;7.04;72.02
78206;BME280;67480;48.920;12.880;2024-02-16T04:15:25;96976.72;;;7.03;71.64
78206;BME280;67480;48.920;12.880;2024-02-16T04:17:51;96974.53;;;6.99;71.85
78206;BME280;67480;48.920;12.880;2024-02-16T04:20:16;96974.13;;;6.96;72.27
78206;BME280;67480;48.920;12.880;2024-02-16T04:22:42;96975.91;;;6.95;71.97
78206;BME280;67480;48.920;12.880;2024-02-16T04:25:08;96976.72;;;6.96;71.81
78206;BME280;67480;48.920;12.880;2024-02-16T04:27:34;96972.69;;;6.93;72.02
78206;BME280;67480;48.920;12.880;2024-02-16T04:30:00;96974.69;;;6.91;72.09
78206;BME280;67480;48.920;12.880;2024-02-16T04:32:25;96976.31;;;6.92;72.47
78206;BME280;67480;48.920;12.880;2024-02-16T04:34:51;96976.50;;;6.91;72.29
78206;BME280;67480;48.920;12.880;2024-02-16T04:37:21;96981.31;;;6.94;72.20
78206;BME280;67480;48.920;12.880;2024-02-16T04:39:47;96977.91;;;6.93;72.32
78206;BME280;67480;48.920;12.880;2024-02-16T04:42:12;96981.53;;;6.92;71.90
78206;BME280;67480;48.920;12.880;2024-02-16T04:44:38;96967.25;;;6.88;72.54
78206;BME280;67480;48.920;12.880;2024-02-16T04:47:04;96970.25;;;6.85;72.37
78206;BME280;67480;48.920;12.880;2024-02-16T04:49:29;96973.66;;;6.86;72.30
78206;BME280;67480;48.920;12.880;2024-02-16T04:51:54;96962.66;;;6.84;71.90
78206;BME280;67480;48.920;12.880;2024-02-16T04:54:20;96967.03;;;6.83;71.74
78206;BME280;67480;48.920;12.880;2024-02-16T04:56:45;96973.06;;;6.84;72.04
78206;BME280;67480;48.920;12.880;2024-02-16T04:59:11;96967.25;;;6.88;72.30
78206;BME280;67480;48.920;12.880;2024-02-16T05:01:36;96972.69;;;6.87;72.19
78206;BME280;67480;48.920;12.880;2024-02-16T05:04:02;96973.47;;;6.87;72.41
78206;BME280;67480;48.920;12.880;2024-02-16T05:06:27;96973.66;;;6.86;72.30
78206;BME280;67480;48.920;12.880;2024-02-16T05:08:53;96983.91;;;6.87;72.55
78206;BME280;67480;48.920;12.880;2024-02-16T05:11:19;96972.06;;;6.85;72.73
78206;BME280;67480;48.920;12.880;2024-02-16T05:13:44;96989.50;;;6.84;72.52
78206;BME280;67480;48.920;12.880;2024-02-16T05:16:11;96983.09;;;6.87;72.50
78206;BME280;67480;48.920;12.880;2024-02-16T05:18:37;96974.84;;;6.83;72.83
78206;BME280;67480;48.920;12.880;2024-02-16T05:21:02;96970.66;;;6.82;73.14
78206;BME280;67480;48.920;12.880;2024-02-16T05:23:28;96970.66;;;6.82;72.86
78206;BME280;67480;48.920;12.880;2024-02-16T05:25:53;96970.25;;;6.85;72.85
78206;BME280;67480;48.920;12.880;2024-02-16T05:28:19;96969.25;;;6.86;73.19
78206;BME280;67480;48.920;12.880;2024-02-16T05:30:45;96971.50;;;6.89;73.04
78206;BME280;67480;48.920;12.880;2024-02-16T05:33:11;96970.66;;;6.89;73.13
78206;BME280;67480;48.920;12.880;2024-02-16T05:35:36;96975.69;;;6.90;73.54
78206;BME280;67480;48.920;12.880;2024-02-16T05:38:05;96978.72;;;6.94;73.05
78206;BME280;67480;48.920;12.880;2024-02-16T05:40:46;96978.91;;;6.92;73.69
78206;BME280;67480;48.920;12.880;2024-02-16T05:43:19;96982.13;;;6.94;73.49
78206;BME280;67480;48.920;12.880;2024-02-16T05:45:45;96985.34;;;6.96;73.22
78206;BME280;67480;48.920;12.880;2024-02-16T05:48:11;96994.34;;;6.94;73.53
78206;BME280;67480;48.920;12.880;2024-02-16T05:50:37;97000.34;;;6.94;73.36
78206;BME280;67480;48.920;12.880;2024-02-16T05:53:03;97002.97;;;6.94;73.45
78206;BME280;67480;48.920;12.880;2024-02-16T05:55:28;96996.94;;;6.94;73.25
78206;BME280;67480;48.920;12.880;2024-02-16T05:57:54;97005.78;;;6.93;73.85
78206;BME280;67480;48.920;12.880;2024-02-16T06:00:21;97004.75;;;6.94;73.41
78206;BME280;67480;48.920;12.880;2024-02-16T06:02:47;97003.97;;;6.93;73.62
78206;BME280;67480;48.920;12.880;2024-02-16T06:05:12;97013.19;;;6.96;73.71
78206;BME280;67480;48.920;12.880;2024-02-16T06:07:38;97007.19;;;6.95;73.73
78206;BME280;67480;48.920;12.880;2024-02-16T06:10:05;97009.19;;;6.93;73.80
78206;BME280;67480;48.920;12.880;2024-02-16T06:12:33;97013.38;;;6.94;73.49
78206;BME280;67480;48.920;12.880;2024-02-16T06:14:58;97024.41;;;6.96;73.93
78206;BME280;67480;48.920;12.880;2024-02-16T06:17:24;97011.59;;;6.95;73.67
78206;BME280;67480;48.920;12.880;2024-02-16T06:19:50;97010.78;;;6.94;74.09
78206;BME280;67480;48.920;12.880;2024-02-16T06:22:16;97014.38;;;6.93;74.06
78206;BME280;67480;48.920;12.880;2024-02-16T06:24:41;97011.78;;;6.93;74.23
78206;BME280;67480;48.920;12.880;2024-02-16T06:27:06;97014.38;;;6.93;73.95
78206;BME280;67480;48.920;12.880;2024-02-16T06:29:34;97024.41;;;6.96;74.05
78206;BME280;67480;48.920;12.880;2024-02-16T06:32:00;97016.19;;;6.93;74.30
78206;BME280;67480;48.920;12.880;2024-02-16T06:34:27;97024.19;;;6.91;73.90
78206;BME280;67480;48.920;12.880;2024-02-16T06:36:52;97025.19;;;6.90;74.44
78206;BME280;67480;48.920;12.880;2024-02-16T06:39:18;97028.41;;;6.92;74.13
78206;BME280;67480;48.920;12.880;2024-02-16T06:41:44;97027.81;;;6.90;74.22
78206;BME280;67480;48.920;12.880;2024-02-16T06:44:11;97025.38;;;6.89;74.46
78206;BME280;67480;48.920;12.880;2024-02-16T06:46:37;97026.00;;;6.91;74.15
78206;BME280;67480;48.920;12.880;2024-02-16T06:49:02;97031.22;;;6.91;74.30
78206;BME280;67480;48.920;12.880;2024-02-16T06:51:27;97035.63;;;6.90;74.59
78206;BME280;67480;48.920;12.880;2024-02-16T06:53:54;97042.63;;;6.90;74.39
78206;BME280;67480;48.920;12.880;2024-02-16T06:56:19;97036.41;;;6.91;74.60
78206;BME280;67480;48.920;12.880;2024-02-16T06:58:46;97040.81;;;6.90;74.59
78206;BME280;67480;48.920;12.880;2024-02-16T07:01:15;97045.03;;;6.91;74.33
78206;BME280;67480;48.920;12.880;2024-02-16T07:03:41;97048.25;;;6.93;74.82
78206;BME280;67480;48.920;12.880;2024-02-16T07:06:06;97050.84;;;6.93;74.56
78206;BME280;67480;48.920;12.880;2024-02-16T07:08:38;97048.88;;;6.95;74.62
78206;BME280;67480;48.920;12.880;2024-02-16T07:11:04;97050.84;;;6.93;74.81
78206;BME280;67480;48.920;12.880;2024-02-16T07:13:31;97045.25;;;6.96;74.68
78206;BME280;67480;48.920;12.880;2024-02-16T07:15:57;97048.06;;;6.95;75.05
78206;BME280;67480;48.920;12.880;2024-02-16T07:18:22;97045.47;;;6.95;75.13
78206;BME280;67480;48.920;12.880;2024-02-16T07:20:48;97057.28;;;6.97;74.96
78206;BME280;67480;48.920;12.880;2024-02-16T07:23:13;97050.47;;;6.96;75.30
78206;BME280;67480;48.920;12.880;2024-02-16T07:25:41;97055.50;;;6.98;75.19
78206;BME280;67480;48.920;12.880;2024-02-16T07:28:07;97047.69;;;6.98;75.05
78206;BME280;67480;48.920;12.880;2024-02-16T07:30:34;97045.88;;;6.98;75.49
78206;BME280;67480;48.920;12.880;2024-02-16T07:33:00;97056.91;;;7.00;75.33
78206;BME280;67480;48.920;12.880;2024-02-16T07:35:25;97052.69;;;6.99;75.40
78206;BME280;67480;48.920;12.880;2024-02-16T07:37:51;97056.91;;;7.00;75.68
78206;BME280;67480;48.920;12.880;2024-02-16T07:40:22;97054.50;;;7.06;75.59
78206;BME280;67480;48.920;12.880;2024-02-16T07:42:47;97051.91;;;7.06;75.60
78206;BME280;67480;48.920;12.880;2024-02-16T07:45:13;97056.94;;;7.07;75.42
78206;BME280;67480;48.920;12.880;2024-02-16T07:47:41;97061.75;;;7.10;75.85
78206;BME280;67480;48.920;12.880;2024-02-16T07:50:07;97060.75;;;7.11;75.88
78206;BME280;67480;48.920;12.880;2024-02-16T07:52:32;97060.56;;;7.13;75.24
78206;BME280;67480;48.920;12.880;2024-02-16T07:54:58;97068.19;;;7.14;75.52
78206;BME280;67480;48.920;12.880;2024-02-16T07:57:24;97055.97;;;7.15;75.59
78206;BME280;67480;48.920;12.880;2024-02-16T07:59:49;97067.38;;;7.14;75.80
78206;BME280;67480;48.920;12.880;2024-02-16T08:02:15;97062.97;;;7.14;75.15
78206;BME280;67480;48.920;12.880;2024-02-16T08:04:48;97063.41;;;7.18;74.97
78206;BME280;67480;48.920;12.880;2024-02-16T08:07:13;97073.03;;;7.17;74.60
78206;BME280;67480;48.920;12.880;2024-02-16T08:09:39;97056.38;;;7.18;74.94
78206;BME280;67480;48.920;12.880;2024-02-16T08:12:05;97059.63;;;7.20;74.96
78206;BME280;67480;48.920;12.880;2024-02-16T08:14:32;97063.03;;;7.21;74.87
78206;BME280;67480;48.920;12.880;2024-02-16T08:16:58;97059.41;;;7.22;75.07
78206;BME280;67480;48.920;12.880;2024-02-16T08:19:32;97059.41;;;7.22;74.79
78206;BME280;67480;48.920;12.880;2024-02-16T08:21:58;97071.47;;;7.23;75.23
78206;BME280;67480;48.920;12.880;2024-02-16T08:24:23;97066.66;;;7.27;75.10
78206;BME280;67480;48.920;12.880;2024-02-16T08:26:48;97069.03;;;7.28;75.13
78206;BME280;67480;48.920;12.880;2024-02-16T08:29:14;97075.88;;;7.29;75.16
78206;BME280;67480;48.920;12.880;2024-02-16T08:31:39;97070.28;;;7.32;75.01
78206;BME280;67480;48.920;12.880;2024-02-16T08:34:05;97074.31;;;7.35;75.21
78206;BME280;67480;48.920;12.880;2024-02-16T08:36:32;97068.28;;;7.34;74.95
78206;BME280;67480;48.920;12.880;2024-02-16T08:38:59;97076.69;;;7.36;74.77
78206;BME280;67480;48.920;12.880;2024-02-16T08:41:24;97071.72;;;7.41;74.70
78206;BME280;67480;48.920;12.880;2024-02-16T08:43:50;97072.31;;;7.43;74.89
78206;BME280;67480;48.920;12.880;2024-02-16T08:46:16;97070.94;;;7.47;74.66
78206;BME280;67480;48.920;12.880;2024-02-16T08:48:41;97081.97;;;7.50;74.91
78206;BME280;67480;48.920;12.880;2024-02-16T08:51:07;97071.53;;;7.50;74.61
78206;BME280;67480;48.920;12.880;2024-02-16T08:53:32;97075.56;;;7.52;74.69
78206;BME280;67480;48.920;12.880;2024-02-16T08:55:57;97078.78;;;7.54;74.57
78206;BME280;67480;48.920;12.880;2024-02-16T08:58:23;97082.81;;;7.57;74.51
78206;BME280;67480;48.920;12.880;2024-02-16T09:00:48;97078.00;;;7.60;74.72
78206;BME280;67480;48.920;12.880;2024-02-16T09:03:15;97081.81;;;7.64;75.26
78206;BME280;67480;48.920;12.880;2024-02-16T09:05:41;97092.06;;;7.66;75.55
78206;BME280;67480;48.920;12.880;2024-02-16T09:08:08;97083.84;;;7.69;75.18
78206;BME280;67480;48.920;12.880;2024-02-16T09:10:34;97083.25;;;7.74;75.05
78206;BME280;67480;48.920;12.880;2024-02-16T09:13:00;97088.88;;;7.77;75.65
78206;BME280;67480;48.920;12.880;2024-02-16T09:15:25;97088.47;;;7.80;75.35
78206;BME280;67480;48.920;12.880;2024-02-16T09:17:51;97093.31;;;7.83;75.13
78206;BME280;67480;48.920;12.880;2024-02-16T09:20:17;97103.34;;;7.86;75.46
78206;BME280;67480;48.920;12.880;2024-02-16T09:22:47;97103.56;;;7.91;75.32
78206;BME280;67480;48.920;12.880;2024-02-16T09:25:13;97095.34;;;7.95;75.26
78206;BME280;67480;48.920;12.880;2024-02-16T09:27:40;97100.38;;;8.03;75.93
78206;BME280;67480;48.920;12.880;2024-02-16T09:30:07;97104.19;;;8.07;75.60
78206;BME280;67480;48.920;12.880;2024-02-16T09:32:36;97099.38;;;8.10;75.76
78206;BME280;67480;48.920;12.880;2024-02-16T09:35:04;97103.41;;;8.13;76.01
78206;BME280;67480;48.920;12.880;2024-02-16T09:37:30;97105.00;;;8.14;76.39
78206;BME280;67480;48.920;12.880;2024-02-16T09:39:55;97108.22;;;8.16;76.29
78206;BME280;67480;48.920;12.880;2024-02-16T09:42:23;97105.41;;;8.18;75.60
78206;BME280;67480;48.920;12.880;2024-02-16T09:44:49;97104.19;;;8.20;76.13
78206;BME280;67480;48.920;12.880;2024-02-16T09:47:15;97107.03;;;8.19;76.68
78206;BME280;67480;48.920;12.880;2024-02-16T09:49:44;97109.63;;;8.19;76.69
78206;BME280;67480;48.920;12.880;2024-02-16T09:52:10;97112.66;;;8.22;76.40
78206;BME280;67480;48.920;12.880;2024-02-16T09:54:37;97109.41;;;8.20;76.50
78206;BME280;67480;48.920;12.880;2024-02-16T09:57:04;97114.47;;;8.22;76.08
78206;BME280;67480;48.920;12.880;2024-02-16T09:59:30;97113.44;;;8.23;75.39
78206;BME280;67480;48.920;12.880;2024-02-16T10:02:04;97114.63;;;8.27;75.42
78206;BME280;67480;48.920;12.880;2024-02-16T10:04:29;97121.47;;;8.28;75.24
78206;BME280;67480;48.920;12.880;2024-02-16T10:06:56;97122.91;;;8.30;75.79
78206;BME280;67480;48.920;12.880;2024-02-16T10:09:26;97126.69;;;8.34;75.50
78206;BME280;67480;48.920;12.880;2024-02-16T10:11:54;97128.69;;;8.32;75.81
78206;BME280;67480;48.920;12.880;2024-02-16T10:14:20;97129.31;;;8.34;76.24
78206;BME280;67480;48.920;12.880;2024-02-16T10:16:47;97123.69;;;8.38;75.71
78206;BME280;67480;48.920;12.880;2024-02-16T10:19:13;97135.16;;;8.43;75.55
78206;BME280;67480;48.920;12.880;2024-02-16T10:21:39;97128.94;;;8.44;75.90
78206;BME280;67480;48.920;12.880;2024-02-16T10:24:10;97133.34;;;8.50;76.21
78206;BME280;67480;48.920;12.880;2024-02-16T10:26:37;97139.16;;;8.52;76.44
78206;BME280;67480;48.920;12.880;2024-02-16T10:29:08;97135.53;;;8.60;75.60
78206;BME280;67480;48.920;12.880;2024-02-16T10:31:34;97135.94;;;8.64;75.81
78206;BME280;67480;48.920;12.880;2024-02-16T10:34:02;97133.13;;;8.65;75.53
78206;BME280;67480;48.920;12.880;2024-02-16T10:36:35;97130.13;;;8.68;75.41
78206;BME280;67480;48.920;12.880;2024-02-16T10:39:01;97117.66;;;8.70;75.25
78206;BME280;67480;48.920;12.880;2024-02-16T10:41:33;97131.94;;;8.74;75.12
78206;BME280;67480;48.920;12.880;2024-02-16T10:44:01;97133.13;;;8.78;75.01
78206;BME280;67480;48.920;12.880;2024-02-16T10:46:27;97135.53;;;8.80;75.25
78206;BME280;67480;48.920;12.880;2024-02-16T10:48:52;97141.56;;;8.80;75.09
78206;BME280;67480;48.920;12.880;2024-02-16T10:54:07;97129.72;;;8.85;75.15
78206;BME280;67480;48.920;12.880;2024-02-16T10:56:34;97129.16;;;8.89;74.77
78206;BME280;67480;48.920;12.880;2024-02-16T10:59:02;97117.06;;;8.95;74.80
78206;BME280;67480;48.920;12.880;2024-02-16T11:01:27;97123.50;;;8.92;74.46
78206;BME280;67480;48.920;12.880;2024-02-16T11:04:04;97117.47;;;8.98;74.44
78206;BME280;67480;48.920;12.880;2024-02-16T11:06:30;97115.66;;;8.99;74.54
78206;BME280;67480;48.920;12.880;2024-02-16T11:09:01;97119.06;;;9.06;74.19
78206;BME280;67480;48.920;12.880;2024-02-16T11:11:27;97107.78;;;9.12;74.09
78206;BME280;67480;48.920;12.880;2024-02-16T11:13:57;97116.81;;;9.16;74.03
78206;BME280;67480;48.920;12.880;2024-02-16T11:16:22;97108.56;;;9.19;73.97
78206;BME280;67480;48.920;12.880;2024-02-16T11:18:47;97104.72;;;9.22;73.67
78206;BME280;67480;48.920;12.880;2024-02-16T11:21:17;97108.31;;;9.28;73.53
78206;BME280;67480;48.920;12.880;2024-02-16T11:23:44;97109.69;;;9.37;73.40
78206;BME280;67480;48.920;12.880;2024-02-16T11:26:11;97103.66;;;9.36;73.00
78206;BME280;67480;48.920;12.880;2024-02-16T11:28:38;97104.66;;;9.42;72.85
78206;BME280;67480;48.920;12.880;2024-02-16T11:31:04;97112.31;;;9.43;73.30
78206;BME280;67480;48.920;12.880;2024-02-16T11:33:30;97110.06;;;9.47;72.86
78206;BME280;67480;48.920;12.880;2024-02-16T11:35:57;97100.41;;;9.54;72.70
78206;BME280;67480;48.920;12.880;2024-02-16T11:38:23;97101.63;;;9.52;72.88
78206;BME280;67480;48.920;12.880;2024-02-16T11:40:56;97098.34;;;9.56;72.46
78206;BME280;67480;48.920;12.880;2024-02-16T11:43:23;97093.53;;;9.60;72.66
78206;BME280;67480;48.920;12.880;2024-02-16T11:45:48;97085.63;;;9.66;72.66
78206;BME280;67480;48.920;12.880;2024-02-16T11:48:19;97091.28;;;9.63;72.37
78206;BME280;67480;48.920;12.880;2024-02-16T11:50:46;97078.81;;;9.65;72.47
78206;BME280;67480;48.920;12.880;2024-02-16T11:53:16;97078.16;;;9.70;72.28
78206;BME280;67480;48.920;12.880;2024-02-16T11:55:46;97082.16;;;9.79;71.83
78206;BME280;67480;48.920;12.880;2024-02-16T11:58:12;97074.13;;;9.74;72.08
78206;BME280;67480;48.920;12.880;2024-02-16T12:00:40;97076.28;;;9.84;71.93
78206;BME280;67480;48.920;12.880;2024-02-16T12:03:06;97069.63;;;9.88;71.74
78206;BME280;67480;48.920;12.880;2024-02-16T12:05:33;97061.53;;;9.96;72.27
78206;BME280;67480;48.920;12.880;2024-02-16T12:07:58;97072.34;;;10.00;72.20
78206;BME280;67480;48.920;12.880;2024-02-16T12:10:24;97067.06;;;10.06;71.89
78206;BME280;67480;48.920;12.880;2024-02-16T12:12:50;97064.63;;;10.11;71.98
78206;BME280;67480;48.920;12.880;2024-02-16T12:15:15;97072.47;;;10.11;71.67
78206;BME280;67480;48.920;12.880;2024-02-16T12:17:43;97065.38;;;10.19;71.54
78206;BME280;67480;48.920;12.880;2024-02-16T12:20:15;97059.72;;;10.22;71.39
78206;BME280;67480;48.920;12.880;2024-02-16T12:22:59;97065.53;;;10.24;71.24
78206;BME280;67480;48.920;12.880;2024-02-16T12:25:35;97067.72;;;10.27;70.85
78206;BME280;67480;48.920;12.880;2024-02-16T12:28:00;97057.84;;;10.29;70.90
78206;BME280;67480;48.920;12.880;2024-02-16T12:30:26;97054.78;;;10.32;70.69
78206;BME280;67480;48.920;12.880;2024-02-16T12:32:51;97058.00;;;10.34;70.74
78206;BME280;67480;48.920;12.880;2024-02-16T12:35:18;97049.13;;;10.35;70.67
78206;BME280;67480;48.920;12.880;2024-02-16T12:37:43;97052.69;;;10.41;70.46
78206;BME280;67480;48.920;12.880;2024-02-16T12:40:10;97056.72;;;10.43;70.81
78206;BME280;67480;48.920;12.880;2024-02-16T12:42:36;97051.03;;;10.46;70.35
78206;BME280;67480;48.920;12.880;2024-02-16T12:45:01;97057.47;;;10.50;70.46
78206;BME280;67480;48.920;12.880;2024-02-16T12:47:27;97053.03;;;10.51;70.26
78206;BME280;67480;48.920;12.880;2024-02-16T12:49:56;97048.13;;;10.54;70.30
78206;BME280;67480;48.920;12.880;2024-02-16T12:52:22;97058.63;;;10.54;70.10
78206;BME280;67480;48.920;12.880;2024-02-16T12:54:48;97049.75;;;10.55;70.01
78206;BME280;67480;48.920;12.880;2024-02-16T12:57:13;97055.38;;;10.59;70.13
78206;BME280;67480;48.920;12.880;2024-02-16T12:59:39;97062.44;;;10.58;70.23
78206;BME280;67480;48.920;12.880;2024-02-16T13:02:04;97058.78;;;10.59;69.75